sensor_id;sensor_type;location;lat;lon;timestamp;pressure;altitude;pressure_sealevel;temperature;humidity
27643;BME280;15053;48.618;10.024;2023-07-31T00:01:27;94407.94;;;15.31;70.24
27643;BME280;15053;48.618;10.024;2023-07-31T00:03:53;94408.25;;;15.30;70.05
27643;BME280;15053;48.618;10.024;2023-07-31T00:06:20;94360.94;;;15.01;70.14
27643;BME280;15053;48.618;10.024;2023-07-31T00:08:46;94413.19;;;15.31;70.31
27643;BME280;15053;48.618;10.024;2023-07-31T00:11:13;94403.78;;;15.30;70.27
27643;BME280;15053;48.618;10.024;2023-07-31T00:13:39;94399.31;;;15.22;70.24
27643;BME280;15053;48.618;10.024;2023-07-31T00:16:06;94359.69;;;14.98;70.54
27643;BME280;15053;48.618;10.024;2023-07-31T00:18:32;94401.03;;;15.27;70.26
27643;BME280;15053;48.618;10.024;2023-07-31T00:20:59;94398.69;;;15.25;70.34
27643;BME280;15053;48.618;10.024;2023-07-31T00:23:25;94399.03;;;15.24;70.18
27643;BME280;15053;48.618;10.024;2023-07-31T00:25:52;94401.94;;;15.22;70.37
27643;BME280;15053;48.618;10.024;2023-07-31T00:28:18;94403.50;;;15.15;70.53
27643;BME280;15053;48.618;10.024;2023-07-31T00:30:45;94408.75;;;15.15;70.45
27643;BME280;15053;48.618;10.024;2023-07-31T00:33:11;94402.88;;;15.09;71.03
27643;BME280;15053;48.618;10.024;2023-07-31T00:35:38;94406.13;;;15.06;71.17
27643;BME280;15053;48.618;10.024;2023-07-31T00:38:04;94402.13;;;15.00;71.27
27643;BME280;15053;48.618;10.024;2023-07-31T00:40:36;94400.44;;;14.96;71.69
27643;BME280;15053;48.618;10.024;2023-07-31T00:43:04;94404.44;;;14.93;72.00
27643;BME280;15053;48.618;10.024;2023-07-31T00:45:31;94388.25;;;14.91;72.15
27643;BME280;15053;48.618;10.024;2023-07-31T00:47:58;94394.56;;;14.90;72.00
27643;BME280;15053;48.618;10.024;2023-07-31T00:50:25;94395.66;;;14.89;72.24
27643;BME280;15053;48.618;10.024;2023-07-31T00:52:52;94397.81;;;14.87;72.65
27643;BME280;15053;48.618;10.024;2023-07-31T00:55:18;94387.94;;;14.84;72.24
27643;BME280;15053;48.618;10.024;2023-07-31T00:57:45;94383.78;;;14.83;72.49
27643;BME280;15053;48.618;10.024;2023-07-31T01:00:12;94395.50;;;14.86;72.57
27643;BME280;15053;48.618;10.024;2023-07-31T01:02:39;94397.66;;;14.84;72.69
27643;BME280;15053;48.618;10.024;2023-07-31T01:05:06;94397.97;;;14.82;72.64
27643;BME280;15053;48.618;10.024;2023-07-31T01:07:42;94402.91;;;14.84;72.74
27643;BME280;15053;48.618;10.024;2023-07-31T01:10:20;94390.09;;;14.82;72.88
27643;BME280;15053;48.618;10.024;2023-07-31T01:12:48;94390.88;;;14.83;73.07
27643;BME280;15053;48.618;10.024;2023-07-31T01:15:16;94390.09;;;14.82;73.00
27643;BME280;15053;48.618;10.024;2023-07-31T01:17:44;94379.63;;;14.82;73.38
27643;BME280;15053;48.618;10.024;2023-07-31T01:20:17;94381.16;;;14.83;73.12
27643;BME280;15053;48.618;10.024;2023-07-31T01:23:16;94379.00;;;14.85;73.19
27643;BME280;15053;48.618;10.024;2023-07-31T01:26:12;94370.69;;;14.83;73.43
27643;BME280;15053;48.618;10.024;2023-07-31T01:31:29;94361.44;;;14.86;73.68
27643;BME280;15053;48.618;10.024;2023-07-31T01:34:00;94361.56;;;14.89;72.89
27643;BME280;15053;48.618;10.024;2023-07-31T01:36:27;94364.66;;;14.91;73.21
27643;BME280;15053;48.618;10.024;2023-07-31T01:38:58;94360.47;;;14.90;73.23
27643;BME280;15053;48.618;10.024;2023-07-31T01:41:26;94357.25;;;14.93;73.14
27643;BME280;15053;48.618;10.024;2023-07-31T01:43:52;94352.28;;;14.92;73.28
27643;BME280;15053;48.618;10.024;2023-07-31T01:46:19;94348.75;;;14.96;73.45
27643;BME280;15053;48.618;10.024;2023-07-31T01:48:45;94345.03;;;14.97;73.12
27643;BME280;15053;48.618;10.024;2023-07-31T01:51:12;94349.53;;;14.97;72.96
27643;BME280;15053;48.618;10.024;2023-07-31T01:53:39;94336.41;;;14.97;73.06
27643;BME280;15053;48.618;10.024;2023-07-31T01:56:07;94335.66;;;14.96;73.11
27643;BME280;15053;48.618;10.024;2023-07-31T01:58:33;94339.34;;;14.95;73.22
27643;BME280;15053;48.618;10.024;2023-07-31T10:02:38;94179.09;;;21.40;50.74
27643;BME280;15053;48.618;10.024;2023-07-31T10:05:06;94178.47;;;21.50;50.10
27643;BME280;15053;48.618;10.024;2023-07-31T10:07:38;94169.19;;;21.63;50.46
27643;BME280;15053;48.618;10.024;2023-07-31T10:10:07;94155.41;;;21.80;50.09
27643;BME280;15053;48.618;10.024;2023-07-31T10:12:35;94136.72;;;21.99;50.85
27643;BME280;15053;48.618;10.024;2023-07-31T10:15:02;94145.31;;;22.19;50.14
27643;BME280;15053;48.618;10.024;2023-07-31T10:17:30;94128.31;;;22.27;50.16
27643;BME280;15053;48.618;10.024;2023-07-31T10:19:58;94133.81;;;22.45;50.20
27643;BME280;15053;48.618;10.024;2023-07-31T10:22:30;94120.53;;;22.45;49.77
27643;BME280;15053;48.618;10.024;2023-07-31T10:24:58;94131.84;;;22.38;49.32
27643;BME280;15053;48.618;10.024;2023-07-31T10:27:25;94140.94;;;22.37;49.15
27643;BME280;15053;48.618;10.024;2023-07-31T10:29:54;94129.88;;;22.31;49.08
27643;BME280;15053;48.618;10.024;2023-07-31T10:32:21;94128.88;;;22.43;49.18
27643;BME280;15053;48.618;10.024;2023-07-31T10:34:49;94111.13;;;22.51;49.05
27643;BME280;15053;48.618;10.024;2023-07-31T10:37:20;94106.28;;;22.60;48.45
27643;BME280;15053;48.618;10.024;2023-07-31T10:39:58;94110.91;;;22.66;48.99
27643;BME280;15053;48.618;10.024;2023-07-31T10:42:49;94099.81;;;22.61;48.78
27643;BME280;15053;48.618;10.024;2023-07-31T10:48:05;94099.81;;;22.61;48.67
27643;BME280;15053;48.618;10.024;2023-07-31T10:50:37;94086.50;;;22.54;48.97
27643;BME280;15053;48.618;10.024;2023-07-31T10:53:04;94085.88;;;22.67;49.13
27643;BME280;15053;48.618;10.024;2023-07-31T10:55:38;94085.91;;;22.71;48.96
27643;BME280;15053;48.618;10.024;2023-07-31T10:58:12;94088.63;;;22.78;48.94
27643;BME280;15053;48.618;10.024;2023-07-31T11:00:41;94085.59;;;22.76;47.97
27643;BME280;15053;48.618;10.024;2023-07-31T11:03:08;94072.34;;;22.79;47.42
27643;BME280;15053;48.618;10.024;2023-07-31T11:05:41;94078.81;;;22.85;46.04
27643;BME280;15053;48.618;10.024;2023-07-31T11:08:15;94065.06;;;22.73;47.17
27643;BME280;15053;48.618;10.024;2023-07-31T11:10:44;94080.66;;;22.78;47.31
27643;BME280;15053;48.618;10.024;2023-07-31T11:13:12;94065.25;;;22.98;46.73
27643;BME280;15053;48.618;10.024;2023-07-31T11:15:39;94070.72;;;23.22;47.64
27643;BME280;15053;48.618;10.024;2023-07-31T11:18:05;94065.97;;;23.45;46.52
27643;BME280;15053;48.618;10.024;2023-07-31T11:20:35;94067.88;;;23.45;45.93
27643;BME280;15053;48.618;10.024;2023-07-31T11:23:05;94073.91;;;23.38;46.27
27643;BME280;15053;48.618;10.024;2023-07-31T11:25:32;94072.06;;;23.49;45.99
27643;BME280;15053;48.618;10.024;2023-07-31T11:28:07;94071.25;;;23.42;46.54
27643;BME280;15053;48.618;10.024;2023-07-31T11:30:34;94060.66;;;23.49;47.32
27643;BME280;15053;48.618;10.024;2023-07-31T11:33:04;94068.78;;;23.81;45.48
27643;BME280;15053;48.618;10.024;2023-07-31T11:35:32;94059.28;;;23.83;45.38
27643;BME280;15053;48.618;10.024;2023-07-31T11:37:59;94060.03;;;23.73;46.52
27643;BME280;15053;48.618;10.024;2023-07-31T11:40:27;94064.59;;;23.80;46.59
27643;BME280;15053;48.618;10.024;2023-07-31T11:43:04;94063.91;;;23.97;45.64
27643;BME280;15053;48.618;10.024;2023-07-31T11:45:30;94075.41;;;24.19;45.69
27643;BME280;15053;48.618;10.024;2023-07-31T11:47:57;94073.50;;;24.19;44.97
27643;BME280;15053;48.618;10.024;2023-07-31T11:50:24;94058.66;;;24.18;44.76
27643;BME280;15053;48.618;10.024;2023-07-31T11:52:57;94067.44;;;24.22;44.60
27643;BME280;15053;48.618;10.024;2023-07-31T11:55:26;94054.84;;;24.16;45.04
27643;BME280;15053;48.618;10.024;2023-07-31T11:57:54;94055.94;;;24.04;44.44
27643;BME280;15053;48.618;10.024;2023-07-31T12:00:21;94053.22;;;23.83;45.22
27643;BME280;15053;48.618;10.024;2023-07-31T12:02:48;94042.19;;;23.84;45.13
27643;BME280;15053;48.618;10.024;2023-07-31T12:05:16;94035.41;;;24.08;44.92
27643;BME280;15053;48.618;10.024;2023-07-31T12:07:47;94033.59;;;24.23;44.52
27643;BME280;15053;48.618;10.024;2023-07-31T12:10:30;94033.53;;;24.08;44.36
27643;BME280;15053;48.618;10.024;2023-07-31T12:13:05;94031.66;;;24.16;45.78
27643;BME280;15053;48.618;10.024;2023-07-31T12:15:40;94035.50;;;24.43;44.65
27643;BME280;15053;48.618;10.024;2023-07-31T12:18:12;94031.34;;;24.85;45.29
27643;BME280;15053;48.618;10.024;2023-07-31T12:20:44;94037.41;;;25.06;43.79
27643;BME280;15053;48.618;10.024;2023-07-31T12:23:14;94028.69;;;24.78;43.19
27643;BME280;15053;48.618;10.024;2023-07-31T12:25:41;94034.38;;;24.55;44.43
27643;BME280;15053;48.618;10.024;2023-07-31T12:28:08;94022.56;;;24.59;45.68
27643;BME280;15053;48.618;10.024;2023-07-31T12:30:39;94030.19;;;25.07;45.50
27643;BME280;15053;48.618;10.024;2023-07-31T12:33:14;94027.13;;;25.12;44.99
27643;BME280;15053;48.618;10.024;2023-07-31T12:35:44;94019.16;;;24.77;44.96
27643;BME280;15053;48.618;10.024;2023-07-31T12:38:12;94021.81;;;24.59;46.08
27643;BME280;15053;48.618;10.024;2023-07-31T12:40:41;94022.97;;;24.54;46.47
27643;BME280;15053;48.618;10.024;2023-07-31T12:43:08;94019.13;;;24.34;45.42
27643;BME280;15053;48.618;10.024;2023-07-31T12:45:35;94016.00;;;24.04;46.25
27643;BME280;15053;48.618;10.024;2023-07-31T12:48:02;94018.63;;;23.83;46.64
27643;BME280;15053;48.618;10.024;2023-07-31T12:50:28;94016.69;;;23.69;47.19
27643;BME280;15053;48.618;10.024;2023-07-31T12:52:56;94010.19;;;23.63;47.39
27643;BME280;15053;48.618;10.024;2023-07-31T12:55:23;93995.69;;;23.46;47.96
27643;BME280;15053;48.618;10.024;2023-07-31T12:57:50;93987.59;;;23.25;48.39
27643;BME280;15053;48.618;10.024;2023-07-31T13:00:17;93987.53;;;23.11;48.44
27643;BME280;15053;48.618;10.024;2023-07-31T13:02:43;93994.69;;;23.04;48.52
27643;BME280;15053;48.618;10.024;2023-07-31T13:05:10;93987.44;;;22.97;48.79
27643;BME280;15053;48.618;10.024;2023-07-31T13:07:36;93980.56;;;22.89;48.45
27643;BME280;15053;48.618;10.024;2023-07-31T13:10:03;93967.28;;;22.89;48.50
27643;BME280;15053;48.618;10.024;2023-07-31T13:12:30;93969.59;;;22.94;48.56
27643;BME280;15053;48.618;10.024;2023-07-31T13:14:57;93972.25;;;22.90;48.61
27643;BME280;15053;48.618;10.024;2023-07-31T13:17:23;93968.84;;;22.97;48.95
27643;BME280;15053;48.618;10.024;2023-07-31T13:19:50;93971.50;;;22.97;49.34
27643;BME280;15053;48.618;10.024;2023-07-31T13:22:17;93961.69;;;23.08;49.29
27643;BME280;15053;48.618;10.024;2023-07-31T13:24:43;93952.59;;;23.09;49.35
27643;BME280;15053;48.618;10.024;2023-07-31T13:27:10;93961.34;;;23.10;49.46
27643;BME280;15053;48.618;10.024;2023-07-31T13:29:36;93960.22;;;23.21;48.58
27643;BME280;15053;48.618;10.024;2023-07-31T13:32:03;93943.66;;;23.42;48.72
27643;BME280;15053;48.618;10.024;2023-07-31T13:34:30;93950.16;;;23.66;47.87
27643;BME280;15053;48.618;10.024;2023-07-31T13:36:56;93945.59;;;23.48;48.19
27643;BME280;15053;48.618;10.024;2023-07-31T13:39:23;93951.16;;;23.33;48.03
27643;BME280;15053;48.618;10.024;2023-07-31T13:41:49;93953.38;;;23.17;48.89
27643;BME280;15053;48.618;10.024;2023-07-31T13:44:16;93947.28;;;23.09;49.26
27643;BME280;15053;48.618;10.024;2023-07-31T13:46:42;93945.72;;;23.05;50.07
27643;BME280;15053;48.618;10.024;2023-07-31T13:49:09;93952.63;;;23.13;51.46
27643;BME280;15053;48.618;10.024;2023-07-31T13:51:35;93944.31;;;23.28;51.05
27643;BME280;15053;48.618;10.024;2023-07-31T13:54:02;93940.59;;;23.43;49.75
27643;BME280;15053;48.618;10.024;2023-07-31T13:56:29;93937.59;;;23.45;50.36
27643;BME280;15053;48.618;10.024;2023-07-31T13:58:55;93938.75;;;23.55;49.63
27643;BME280;15053;48.618;10.024;2023-07-31T14:01:22;93938.38;;;23.63;49.20
27643;BME280;15053;48.618;10.024;2023-07-31T14:03:48;93940.34;;;24.01;48.50
27643;BME280;15053;48.618;10.024;2023-07-31T14:06:15;93931.66;;;24.36;48.04
27643;BME280;15053;48.618;10.024;2023-07-31T14:08:41;93938.09;;;24.60;47.68
27643;BME280;15053;48.618;10.024;2023-07-31T14:11:08;93937.34;;;24.49;47.18
27643;BME280;15053;48.618;10.024;2023-07-31T14:13:34;93930.13;;;24.39;47.65
27643;BME280;15053;48.618;10.024;2023-07-31T14:16:01;93920.25;;;24.36;47.20
27643;BME280;15053;48.618;10.024;2023-07-31T14:18:28;93919.47;;;24.21;47.60
27643;BME280;15053;48.618;10.024;2023-07-31T14:20:55;93932.41;;;24.16;47.94
27643;BME280;15053;48.618;10.024;2023-07-31T14:23:21;93925.94;;;24.10;47.59
27643;BME280;15053;48.618;10.024;2023-07-31T14:25:48;93927.06;;;23.98;47.30
27643;BME280;15053;48.618;10.024;2023-07-31T14:28:14;93926.28;;;23.87;47.78
27643;BME280;15053;48.618;10.024;2023-07-31T14:30:41;93924.38;;;23.80;48.29
27643;BME280;15053;48.618;10.024;2023-07-31T14:33:08;93921.69;;;23.70;48.81
27643;BME280;15053;48.618;10.024;2023-07-31T14:35:35;93917.88;;;23.64;49.30
27643;BME280;15053;48.618;10.024;2023-07-31T14:38:01;93923.94;;;23.57;50.35
27643;BME280;15053;48.618;10.024;2023-07-31T14:40:28;93917.09;;;23.45;50.20
27643;BME280;15053;48.618;10.024;2023-07-31T14:42:54;93926.94;;;23.41;50.66
27643;BME280;15053;48.618;10.024;2023-07-31T14:45:21;93920.78;;;23.30;50.54
27643;BME280;15053;48.618;10.024;2023-07-31T14:47:47;93928.34;;;23.21;49.96
27643;BME280;15053;48.618;10.024;2023-07-31T14:50:14;93926.78;;;23.13;50.89
27643;BME280;15053;48.618;10.024;2023-07-31T14:52:41;93913.50;;;23.10;51.02
27643;BME280;15053;48.618;10.024;2023-07-31T14:55:07;93927.91;;;23.09;51.21
27643;BME280;15053;48.618;10.024;2023-07-31T14:57:35;93922.19;;;22.96;51.41
27643;BME280;15053;48.618;10.024;2023-07-31T15:00:02;93927.41;;;22.82;51.56
27643;BME280;15053;48.618;10.024;2023-07-31T15:02:42;93917.53;;;22.79;51.96
27643;BME280;15053;48.618;10.024;2023-07-31T15:05:09;93922.09;;;22.85;52.11
27643;BME280;15053;48.618;10.024;2023-07-31T15:07:35;93914.91;;;22.86;52.28
27643;BME280;15053;48.618;10.024;2023-07-31T15:10:03;93916.06;;;22.92;52.35
27643;BME280;15053;48.618;10.024;2023-07-31T15:12:29;93904.66;;;22.84;52.67
27643;BME280;15053;48.618;10.024;2023-07-31T15:14:56;93914.50;;;22.77;52.27
27643;BME280;15053;48.618;10.024;2023-07-31T15:17:23;93920.03;;;22.58;52.61
27643;BME280;15053;48.618;10.024;2023-07-31T15:19:50;93911.97;;;22.44;53.39
27643;BME280;15053;48.618;10.024;2023-07-31T15:22:16;93899.78;;;22.36;54.01
27643;BME280;15053;48.618;10.024;2023-07-31T15:24:43;93897.06;;;22.28;54.07
27643;BME280;15053;48.618;10.024;2023-07-31T15:27:10;93895.16;;;22.25;54.48
27643;BME280;15053;48.618;10.024;2023-07-31T15:29:36;93894.00;;;22.23;54.78
27643;BME280;15053;48.618;10.024;2023-07-31T15:32:04;93890.16;;;22.13;54.88
27643;BME280;15053;48.618;10.024;2023-07-31T15:34:31;93897.31;;;22.09;55.36
27643;BME280;15053;48.618;10.024;2023-07-31T15:36:58;93891.22;;;22.05;55.02
27643;BME280;15053;48.618;10.024;2023-07-31T15:39:25;93872.22;;;21.96;54.54
27643;BME280;15053;48.618;10.024;2023-07-31T15:41:52;93898.03;;;22.03;54.67
27643;BME280;15053;48.618;10.024;2023-07-31T15:44:18;93886.22;;;21.97;54.64
27643;BME280;15053;48.618;10.024;2023-07-31T15:46:45;93888.81;;;21.90;54.80
27643;BME280;15053;48.618;10.024;2023-07-31T15:49:11;93880.00;;;21.82;54.59
27643;BME280;15053;48.618;10.024;2023-07-31T15:51:39;93876.53;;;21.74;54.78
27643;BME280;15053;48.618;10.024;2023-07-31T15:54:06;93879.13;;;21.67;54.95
27643;BME280;15053;48.618;10.024;2023-07-31T15:56:32;93866.50;;;21.54;55.04
27643;BME280;15053;48.618;10.024;2023-07-31T15:58:59;93871.41;;;21.52;55.39
27643;BME280;15053;48.618;10.024;2023-07-31T16:01:27;93859.19;;;21.40;55.86
27643;BME280;15053;48.618;10.024;2023-07-31T16:03:54;93872.50;;;21.47;55.86
27643;BME280;15053;48.618;10.024;2023-07-31T16:06:21;93868.69;;;21.45;55.92
27643;BME280;15053;48.618;10.024;2023-07-31T16:08:47;93855.69;;;21.33;56.19
27643;BME280;15053;48.618;10.024;2023-07-31T16:11:17;93866.38;;;21.40;56.53
27643;BME280;15053;48.618;10.024;2023-07-31T16:13:44;93864.84;;;21.39;56.37
27643;BME280;15053;48.618;10.024;2023-07-31T16:16:10;93864.84;;;21.39;56.69
27643;BME280;15053;48.618;10.024;2023-07-31T16:18:37;93867.09;;;21.37;56.80
27643;BME280;15053;48.618;10.024;2023-07-31T16:21:04;93870.53;;;21.41;57.08
27643;BME280;15053;48.618;10.024;2023-07-31T16:23:31;93859.97;;;21.44;56.93
27643;BME280;15053;48.618;10.024;2023-07-31T16:25:57;93864.91;;;21.46;56.68
27643;BME280;15053;48.618;10.024;2023-07-31T16:28:24;93847.50;;;21.45;56.08
27643;BME280;15053;48.618;10.024;2023-07-31T16:30:50;93847.16;;;21.50;55.25
27643;BME280;15053;48.618;10.024;2023-07-31T16:33:17;93844.22;;;21.58;55.08
27643;BME280;15053;48.618;10.024;2023-07-31T16:35:44;93836.75;;;21.71;54.90
27643;BME280;15053;48.618;10.024;2023-07-31T16:38:10;93835.69;;;21.83;54.83
27643;BME280;15053;48.618;10.024;2023-07-31T16:40:37;93841.50;;;21.92;53.99
27643;BME280;15053;48.618;10.024;2023-07-31T16:43:03;93838.50;;;21.97;53.20
27643;BME280;15053;48.618;10.024;2023-07-31T16:45:30;93827.88;;;21.97;52.60
27643;BME280;15053;48.618;10.024;2023-07-31T16:47:56;93831.69;;;21.99;52.67
27643;BME280;15053;48.618;10.024;2023-07-31T16:50:23;93841.56;;;22.02;52.52
27643;BME280;15053;48.618;10.024;2023-07-31T16:52:49;93827.88;;;22.00;51.92
27643;BME280;15053;48.618;10.024;2023-07-31T16:55:17;93822.19;;;21.98;51.53
27643;BME280;15053;48.618;10.024;2023-07-31T16:57:43;93818.47;;;22.03;51.79
27643;BME280;15053;48.618;10.024;2023-07-31T17:00:10;93812.44;;;22.13;51.59
27643;BME280;15053;48.618;10.024;2023-07-31T17:02:37;93808.69;;;22.17;50.82
27643;BME280;15053;48.618;10.024;2023-07-31T17:05:05;93804.91;;;22.18;50.48
27643;BME280;15053;48.618;10.024;2023-07-31T17:07:32;93811.75;;;22.19;50.60
27643;BME280;15053;48.618;10.024;2023-07-31T17:09:59;93810.22;;;22.18;50.09
27643;BME280;15053;48.618;10.024;2023-07-31T17:12:25;93807.88;;;22.10;49.96
27643;BME280;15053;48.618;10.024;2023-07-31T17:14:52;93808.59;;;22.03;49.75
27643;BME280;15053;48.618;10.024;2023-07-31T17:17:18;93803.63;;;21.98;49.98
27643;BME280;15053;48.618;10.024;2023-07-31T17:19:49;93795.25;;;21.93;50.03
27643;BME280;15053;48.618;10.024;2023-07-31T17:22:16;93805.44;;;21.87;50.23
27643;BME280;15053;48.618;10.024;2023-07-31T17:24:42;93809.16;;;21.79;50.52
27643;BME280;15053;48.618;10.024;2023-07-31T17:27:09;93809.50;;;21.74;51.14
27643;BME280;15053;48.618;10.024;2023-07-31T17:29:35;93813.25;;;21.69;51.67
27643;BME280;15053;48.618;10.024;2023-07-31T17:32:02;93807.91;;;21.66;51.95
27643;BME280;15053;48.618;10.024;2023-07-31T17:34:29;93801.44;;;21.60;51.97
27643;BME280;15053;48.618;10.024;2023-07-31T17:36:56;93812.75;;;21.57;52.44
27643;BME280;15053;48.618;10.024;2023-07-31T17:39:23;93810.09;;;21.57;52.58
27643;BME280;15053;48.618;10.024;2023-07-31T17:41:50;93812.75;;;21.57;52.51
27643;BME280;15053;48.618;10.024;2023-07-31T17:44:16;93806.69;;;21.56;52.77
27643;BME280;15053;48.618;10.024;2023-07-31T17:46:43;93802.53;;;21.55;52.99
27643;BME280;15053;48.618;10.024;2023-07-31T17:49:10;93796.84;;;21.53;53.27
27643;BME280;15053;48.618;10.024;2023-07-31T17:51:37;93787.34;;;21.52;53.72
27643;BME280;15053;48.618;10.024;2023-07-31T17:54:05;93788.50;;;21.55;53.75
27643;BME280;15053;48.618;10.024;2023-07-31T17:56:31;93793.47;;;21.60;53.85
27643;BME280;15053;48.618;10.024;2023-07-31T17:59:00;93786.25;;;21.57;53.95
27643;BME280;15053;48.618;10.024;2023-07-31T18:01:27;93790.06;;;21.56;53.71
27643;BME280;15053;48.618;10.024;2023-07-31T18:03:53;93790.06;;;21.56;54.08
27643;BME280;15053;48.618;10.024;2023-07-31T18:06:20;93791.94;;;21.55;54.47
27643;BME280;15053;48.618;10.024;2023-07-31T18:08:46;93795.66;;;21.51;54.61
27643;BME280;15053;48.618;10.024;2023-07-31T18:11:13;93792.22;;;21.47;54.68
27643;BME280;15053;48.618;10.024;2023-07-31T18:13:40;93791.44;;;21.43;54.72
27643;BME280;15053;48.618;10.024;2023-07-31T18:16:07;93801.97;;;21.36;54.94
27643;BME280;15053;48.618;10.024;2023-07-31T18:18:33;93800.00;;;21.29;55.19
27643;BME280;15053;48.618;10.024;2023-07-31T18:21:00;93799.97;;;21.22;55.16
27643;BME280;15053;48.618;10.024;2023-07-31T18:23:26;93796.50;;;21.14;55.47
27643;BME280;15053;48.618;10.024;2023-07-31T18:25:53;93797.09;;;21.04;55.48
27643;BME280;15053;48.618;10.024;2023-07-31T18:28:19;93798.91;;;20.97;55.62
27643;BME280;15053;48.618;10.024;2023-07-31T18:30:46;93801.84;;;20.88;55.77
27643;BME280;15053;48.618;10.024;2023-07-31T18:33:12;93801.41;;;20.83;56.35
27643;BME280;15053;48.618;10.024;2023-07-31T18:35:39;93805.16;;;20.78;56.48
27643;BME280;15053;48.618;10.024;2023-07-31T18:38:05;93802.41;;;20.71;56.51
27643;BME280;15053;48.618;10.024;2023-07-31T18:40:32;93797.44;;;20.66;56.80
27643;BME280;15053;48.618;10.024;2023-07-31T18:42:59;93796.66;;;20.62;56.80
27643;BME280;15053;48.618;10.024;2023-07-31T18:45:26;93797.38;;;20.59;56.96
27643;BME280;15053;48.618;10.024;2023-07-31T18:47:52;93791.31;;;20.58;57.35
27643;BME280;15053;48.618;10.024;2023-07-31T18:50:19;93788.59;;;20.55;57.33
27643;BME280;15053;48.618;10.024;2023-07-31T18:52:45;93785.22;;;20.54;57.26
27643;BME280;15053;48.618;10.024;2023-07-31T18:55:12;93792.03;;;20.55;57.46
27643;BME280;15053;48.618;10.024;2023-07-31T18:57:38;93783.69;;;20.53;57.97
27643;BME280;15053;48.618;10.024;2023-07-31T19:00:05;93794.22;;;20.50;58.15
27643;BME280;15053;48.618;10.024;2023-07-31T19:02:32;93794.53;;;20.45;58.53
27643;BME280;15053;48.618;10.024;2023-07-31T19:04:59;93798.28;;;20.40;59.29
27643;BME280;15053;48.618;10.024;2023-07-31T19:07:25;93796.34;;;20.37;59.18
27643;BME280;15053;48.618;10.024;2023-07-31T19:09:52;93791.00;;;20.34;59.50
27643;BME280;15053;48.618;10.024;2023-07-31T19:12:34;93792.13;;;20.33;59.72
27643;BME280;15053;48.618;10.024;2023-07-31T19:15:01;93777.38;;;20.32;59.38
27643;BME280;15053;48.618;10.024;2023-07-31T19:17:27;93786.44;;;20.31;59.50
27643;BME280;15053;48.618;10.024;2023-07-31T19:19:54;93787.91;;;20.28;59.41
27643;BME280;15053;48.618;10.024;2023-07-31T19:22:20;93785.63;;;20.27;59.49
27643;BME280;15053;48.618;10.024;2023-07-31T19:24:47;93782.56;;;20.25;59.96
27643;BME280;15053;48.618;10.024;2023-07-31T19:27:13;93773.09;;;20.24;59.84
27643;BME280;15053;48.618;10.024;2023-07-31T19:29:40;93772.66;;;20.22;60.33
27643;BME280;15053;48.618;10.024;2023-07-31T19:32:06;93777.56;;;20.20;60.46
27643;BME280;15053;48.618;10.024;2023-07-31T19:34:33;93786.63;;;20.19;60.58
27643;BME280;15053;48.618;10.024;2023-07-31T19:36:59;93792.22;;;20.14;60.86
27643;BME280;15053;48.618;10.024;2023-07-31T19:39:26;93792.19;;;20.10;61.75
27643;BME280;15053;48.618;10.024;2023-07-31T19:41:52;93790.59;;;20.06;62.62
27643;BME280;15053;48.618;10.024;2023-07-31T19:44:19;93799.53;;;19.97;63.57
27643;BME280;15053;48.618;10.024;2023-07-31T19:46:45;93800.56;;;19.89;64.77
27643;BME280;15053;48.618;10.024;2023-07-31T19:49:12;93802.75;;;19.84;65.13
27643;BME280;15053;48.618;10.024;2023-07-31T19:51:38;93800.78;;;19.77;66.13
27643;BME280;15053;48.618;10.024;2023-07-31T19:54:05;93785.97;;;19.73;66.61
27643;BME280;15053;48.618;10.024;2023-07-31T19:56:31;93779.13;;;19.68;67.04
27643;BME280;15053;48.618;10.024;2023-07-31T19:58:58;93768.47;;;19.65;66.96
27643;BME280;15053;48.618;10.024;2023-07-31T20:01:24;93755.22;;;19.61;66.92
27643;BME280;15053;48.618;10.024;2023-07-31T20:03:52;93758.84;;;19.53;67.38
27643;BME280;15053;48.618;10.024;2023-07-31T20:06:19;93752.38;;;19.47;68.04
27643;BME280;15053;48.618;10.024;2023-07-31T20:08:46;93750.38;;;19.40;68.08
27643;BME280;15053;48.618;10.024;2023-07-31T20:11:12;93745.31;;;19.32;68.79
27643;BME280;15053;48.618;10.024;2023-07-31T20:13:39;93740.31;;;19.27;69.34
27643;BME280;15053;48.618;10.024;2023-07-31T20:16:06;93740.25;;;19.23;69.62
27643;BME280;15053;48.618;10.024;2023-07-31T20:18:32;93741.31;;;19.19;70.12
27643;BME280;15053;48.618;10.024;2023-07-31T20:20:59;93746.19;;;19.17;70.33
27643;BME280;15053;48.618;10.024;2023-07-31T20:23:26;93747.59;;;19.11;71.24
27643;BME280;15053;48.618;10.024;2023-07-31T20:26:08;93748.31;;;19.08;72.12
27643;BME280;15053;48.618;10.024;2023-07-31T20:28:34;93751.94;;;19.00;72.43
27643;BME280;15053;48.618;10.024;2023-07-31T20:31:01;93757.50;;;18.95;73.37
27643;BME280;15053;48.618;10.024;2023-07-31T20:33:27;93757.38;;;18.88;74.69
27643;BME280;15053;48.618;10.024;2023-07-31T20:35:54;93760.59;;;18.77;75.63
27643;BME280;15053;48.618;10.024;2023-07-31T20:38:20;93751.03;;;18.69;76.24
27643;BME280;15053;48.618;10.024;2023-07-31T20:40:50;93757.28;;;18.61;77.41
27643;BME280;15053;48.618;10.024;2023-07-31T20:43:18;93749.94;;;18.51;78.68
27643;BME280;15053;48.618;10.024;2023-07-31T20:45:45;93747.13;;;18.44;79.17
27643;BME280;15053;48.618;10.024;2023-07-31T20:48:12;93739.09;;;18.37;79.50
27643;BME280;15053;48.618;10.024;2023-07-31T20:50:39;93739.38;;;18.32;80.26
27643;BME280;15053;48.618;10.024;2023-07-31T20:53:06;93726.44;;;18.27;80.44
27643;BME280;15053;48.618;10.024;2023-07-31T20:55:33;93726.44;;;18.27;80.87
27643;BME280;15053;48.618;10.024;2023-07-31T20:57:59;93735.88;;;18.28;81.33
27643;BME280;15053;48.618;10.024;2023-07-31T21:00:26;93733.16;;;18.24;81.68